sensor_id;sensor_type;location;lat;lon;timestamp;temperature;humidity
21171;DHT22;10743;52.160;20.910;2023-07-20T00:02:05;32.30;34.80
21171;DHT22;10743;52.160;20.910;2023-07-20T00:04:32;32.30;34.90
21171;DHT22;10743;52.160;20.910;2023-07-20T00:07:00;32.20;34.60
21171;DHT22;10743;52.160;20.910;2023-07-20T00:09:29;32.20;34.60
21171;DHT22;10743;52.160;20.910;2023-07-20T00:11:56;32.20;34.50
21171;DHT22;10743;52.160;20.910;2023-07-20T00:14:24;32.10;34.70
21171;DHT22;10743;52.160;20.910;2023-07-20T00:16:52;32.10;35.00
21171;DHT22;10743;52.160;20.910;2023-07-20T00:19:23;32.10;34.80
21171;DHT22;10743;52.160;20.910;2023-07-20T00:21:52;32.10;34.70
21171;DHT22;10743;52.160;20.910;2023-07-20T00:24:20;32.00;34.40
21171;DHT22;10743;52.160;20.910;2023-07-20T00:26:47;32.00;34.80
21171;DHT22;10743;52.160;20.910;2023-07-20T00:29:14;32.00;35.10
21171;DHT22;10743;52.160;20.910;2023-07-20T00:31:42;32.00;35.30
21171;DHT22;10743;52.160;20.910;2023-07-20T00:34:10;32.00;35.30
21171;DHT22;10743;52.160;20.910;2023-07-20T00:36:39;32.00;35.50
21171;DHT22;10743;52.160;20.910;2023-07-20T00:39:07;31.90;35.70
21171;DHT22;10743;52.160;20.910;2023-07-20T00:41:34;31.90;35.80
21171;DHT22;10743;52.160;20.910;2023-07-20T00:44:02;31.90;36.10
21171;DHT22;10743;52.160;20.910;2023-07-20T00:46:29;31.80;36.00
21171;DHT22;10743;52.160;20.910;2023-07-20T00:48:56;31.80;36.10
21171;DHT22;10743;52.160;20.910;2023-07-20T00:51:25;31.80;36.10
21171;DHT22;10743;52.160;20.910;2023-07-20T00:53:53;31.80;36.20
21171;DHT22;10743;52.160;20.910;2023-07-20T00:56:22;31.80;36.10
21171;DHT22;10743;52.160;20.910;2023-07-20T00:58:50;31.80;36.10
21171;DHT22;10743;52.160;20.910;2023-07-20T01:01:22;31.80;36.10
21171;DHT22;10743;52.160;20.910;2023-07-20T01:03:49;31.80;35.90
21171;DHT22;10743;52.160;20.910;2023-07-20T01:09:11;31.80;35.90
21171;DHT22;10743;52.160;20.910;2023-07-20T01:12:05;31.80;36.00
21171;DHT22;10743;52.160;20.910;2023-07-20T01:14:40;31.80;36.20
21171;DHT22;10743;52.160;20.910;2023-07-20T01:17:07;31.70;36.40
21171;DHT22;10743;52.160;20.910;2023-07-20T01:19:34;31.70;36.30
21171;DHT22;10743;52.160;20.910;2023-07-20T01:22:23;31.70;36.30
21171;DHT22;10743;52.160;20.910;2023-07-20T01:31:33;31.70;36.30
21171;DHT22;10743;52.160;20.910;2023-07-20T01:34:02;31.70;36.30
21171;DHT22;10743;52.160;20.910;2023-07-20T01:36:35;31.70;36.20
21171;DHT22;10743;52.160;20.910;2023-07-20T01:39:03;31.60;36.20
21171;DHT22;10743;52.160;20.910;2023-07-20T01:41:31;31.60;36.10
21171;DHT22;10743;52.160;20.910;2023-07-20T01:43:58;31.60;36.10
21171;DHT22;10743;52.160;20.910;2023-07-20T01:46:28;31.60;36.20
21171;DHT22;10743;52.160;20.910;2023-07-20T01:48:56;31.60;36.30
21171;DHT22;10743;52.160;20.910;2023-07-20T01:51:23;31.60;36.40
21171;DHT22;10743;52.160;20.910;2023-07-20T01:53:51;31.50;36.20
21171;DHT22;10743;52.160;20.910;2023-07-20T01:56:18;31.50;36.20
21171;DHT22;10743;52.160;20.910;2023-07-20T01:58:45;31.50;36.20
21171;DHT22;10743;52.160;20.910;2023-07-20T02:01:12;31.50;36.20
21171;DHT22;10743;52.160;20.910;2023-07-20T02:03:39;31.40;36.30
21171;DHT22;10743;52.160;20.910;2023-07-20T02:06:06;31.40;36.40
21171;DHT22;10743;52.160;20.910;2023-07-20T02:08:33;31.40;36.70
21171;DHT22;10743;52.160;20.910;2023-07-20T02:11:00;31.30;36.80
21171;DHT22;10743;52.160;20.910;2023-07-20T02:13:27;31.30;36.80
21171;DHT22;10743;52.160;20.910;2023-07-20T02:15:54;31.30;36.90
21171;DHT22;10743;52.160;20.910;2023-07-20T02:18:21;31.30;37.00
21171;DHT22;10743;52.160;20.910;2023-07-20T02:20:49;31.30;37.30
21171;DHT22;10743;52.160;20.910;2023-07-20T02:23:16;31.30;37.50
21171;DHT22;10743;52.160;20.910;2023-07-20T02:25:43;31.20;37.50
21171;DHT22;10743;52.160;20.910;2023-07-20T02:28:13;31.30;37.10
21171;DHT22;10743;52.160;20.910;2023-07-20T02:30:41;31.30;37.10
21171;DHT22;10743;52.160;20.910;2023-07-20T02:33:08;31.20;37.00
21171;DHT22;10743;52.160;20.910;2023-07-20T02:35:35;31.20;36.90
21171;DHT22;10743;52.160;20.910;2023-07-20T02:38:02;31.20;37.00
21171;DHT22;10743;52.160;20.910;2023-07-20T02:40:30;31.30;37.20
21171;DHT22;10743;52.160;20.910;2023-07-20T02:42:57;31.30;37.20
21171;DHT22;10743;52.160;20.910;2023-07-20T02:45:24;31.30;37.30
21171;DHT22;10743;52.160;20.910;2023-07-20T02:47:51;31.30;37.50
21171;DHT22;10743;52.160;20.910;2023-07-20T02:50:18;31.30;37.20
21171;DHT22;10743;52.160;20.910;2023-07-20T02:52:45;31.30;37.50
21171;DHT22;10743;52.160;20.910;2023-07-20T02:55:12;31.30;37.60
21171;DHT22;10743;52.160;20.910;2023-07-20T02:57:40;31.30;37.70
21171;DHT22;10743;52.160;20.910;2023-07-20T03:00:07;31.30;37.70
21171;DHT22;10743;52.160;20.910;2023-07-20T03:02:35;31.30;37.80
21171;DHT22;10743;52.160;20.910;2023-07-20T03:05:02;31.30;37.90
21171;DHT22;10743;52.160;20.910;2023-07-20T03:07:32;31.30;37.90
21171;DHT22;10743;52.160;20.910;2023-07-20T03:09:59;31.30;37.80
21171;DHT22;10743;52.160;20.910;2023-07-20T03:12:27;31.30;37.90
21171;DHT22;10743;52.160;20.910;2023-07-20T03:14:54;31.30;37.90
21171;DHT22;10743;52.160;20.910;2023-07-20T03:17:22;31.30;38.00
21171;DHT22;10743;52.160;20.910;2023-07-20T03:19:50;31.30;38.00
21171;DHT22;10743;52.160;20.910;2023-07-20T03:22:17;31.30;38.00
21171;DHT22;10743;52.160;20.910;2023-07-20T03:24:45;31.30;38.00
21171;DHT22;10743;52.160;20.910;2023-07-20T03:27:12;31.30;37.90
21171;DHT22;10743;52.160;20.910;2023-07-20T03:29:39;31.30;37.90
21171;DHT22;10743;52.160;20.910;2023-07-20T03:32:06;31.30;37.90
21171;DHT22;10743;52.160;20.910;2023-07-20T03:34:34;31.30;38.00
21171;DHT22;10743;52.160;20.910;2023-07-20T03:37:01;31.30;38.10
21171;DHT22;10743;52.160;20.910;2023-07-20T03:39:31;31.30;38.10
21171;DHT22;10743;52.160;20.910;2023-07-20T03:41:58;31.30;38.30
21171;DHT22;10743;52.160;20.910;2023-07-20T03:44:26;31.30;38.40
21171;DHT22;10743;52.160;20.910;2023-07-20T03:46:53;31.30;38.40
21171;DHT22;10743;52.160;20.910;2023-07-20T03:49:20;31.30;38.40
21171;DHT22;10743;52.160;20.910;2023-07-20T03:51:47;31.40;38.10
21171;DHT22;10743;52.160;20.910;2023-07-20T03:54:14;31.40;38.30
21171;DHT22;10743;52.160;20.910;2023-07-20T03:56:42;31.40;38.60
21171;DHT22;10743;52.160;20.910;2023-07-20T03:59:09;31.40;38.80
21171;DHT22;10743;52.160;20.910;2023-07-20T04:01:36;31.40;39.20
21171;DHT22;10743;52.160;20.910;2023-07-20T04:04:07;31.40;39.40
21171;DHT22;10743;52.160;20.910;2023-07-20T04:06:35;31.40;39.50
21171;DHT22;10743;52.160;20.910;2023-07-20T04:09:03;31.40;39.90
21171;DHT22;10743;52.160;20.910;2023-07-20T04:11:31;31.40;40.10
21171;DHT22;10743;52.160;20.910;2023-07-20T04:13:59;31.40;40.10
21171;DHT22;10743;52.160;20.910;2023-07-20T04:16:26;31.40;40.00
21171;DHT22;10743;52.160;20.910;2023-07-20T04:18:57;31.40;40.20
21171;DHT22;10743;52.160;20.910;2023-07-20T04:21:26;31.40;40.30
21171;DHT22;10743;52.160;20.910;2023-07-20T04:23:55;31.40;40.40
21171;DHT22;10743;52.160;20.910;2023-07-20T04:26:22;31.40;40.60
21171;DHT22;10743;52.160;20.910;2023-07-20T04:28:49;31.30;40.50
21171;DHT22;10743;52.160;20.910;2023-07-20T04:31:30;31.30;40.70
21171;DHT22;10743;52.160;20.910;2023-07-20T04:34:00;31.30;40.70
21171;DHT22;10743;52.160;20.910;2023-07-20T04:36:27;31.20;40.80
21171;DHT22;10743;52.160;20.910;2023-07-20T04:38:55;31.20;41.10
21171;DHT22;10743;52.160;20.910;2023-07-20T04:41:22;31.10;41.20
21171;DHT22;10743;52.160;20.910;2023-07-20T04:43:54;31.10;41.30
21171;DHT22;10743;52.160;20.910;2023-07-20T04:46:26;31.10;41.50
21171;DHT22;10743;52.160;20.910;2023-07-20T04:48:53;31.10;41.60
21171;DHT22;10743;52.160;20.910;2023-07-20T04:51:21;31.10;41.80
21171;DHT22;10743;52.160;20.910;2023-07-20T04:53:51;31.00;41.70
21171;DHT22;10743;52.160;20.910;2023-07-20T04:56:19;31.00;41.70
21171;DHT22;10743;52.160;20.910;2023-07-20T04:58:48;31.00;41.70
21171;DHT22;10743;52.160;20.910;2023-07-20T05:01:15;31.00;42.00
21171;DHT22;10743;52.160;20.910;2023-07-20T05:03:43;31.00;41.90
21171;DHT22;10743;52.160;20.910;2023-07-20T05:06:11;31.00;41.90
21171;DHT22;10743;52.160;20.910;2023-07-20T05:08:39;31.00;41.80
21171;DHT22;10743;52.160;20.910;2023-07-20T05:11:06;31.00;41.90
21171;DHT22;10743;52.160;20.910;2023-07-20T05:13:34;31.00;41.90
21171;DHT22;10743;52.160;20.910;2023-07-20T05:16:01;31.00;42.20
21171;DHT22;10743;52.160;20.910;2023-07-20T05:18:29;30.90;42.30
21171;DHT22;10743;52.160;20.910;2023-07-20T05:20:56;30.90;42.30
21171;DHT22;10743;52.160;20.910;2023-07-20T05:23:23;30.90;42.30
21171;DHT22;10743;52.160;20.910;2023-07-20T05:25:59;30.90;42.20
21171;DHT22;10743;52.160;20.910;2023-07-20T05:28:27;30.90;42.20
21171;DHT22;10743;52.160;20.910;2023-07-20T05:30:54;30.90;42.40
21171;DHT22;10743;52.160;20.910;2023-07-20T05:33:22;30.90;42.60
21171;DHT22;10743;52.160;20.910;2023-07-20T05:35:49;30.90;42.80
21171;DHT22;10743;52.160;20.910;2023-07-20T05:38:16;30.90;42.60
21171;DHT22;10743;52.160;20.910;2023-07-20T05:40:44;30.90;42.40
21171;DHT22;10743;52.160;20.910;2023-07-20T05:43:12;31.00;42.80
21171;DHT22;10743;52.160;20.910;2023-07-20T05:45:42;31.00;42.70
21171;DHT22;10743;52.160;20.910;2023-07-20T05:48:10;31.00;42.80
21171;DHT22;10743;52.160;20.910;2023-07-20T05:50:42;31.00;42.60
21171;DHT22;10743;52.160;20.910;2023-07-20T05:53:10;31.00;42.50
21171;DHT22;10743;52.160;20.910;2023-07-20T05:55:37;31.00;42.60
21171;DHT22;10743;52.160;20.910;2023-07-20T05:58:06;31.00;42.90
21171;DHT22;10743;52.160;20.910;2023-07-20T06:00:33;31.00;42.80
21171;DHT22;10743;52.160;20.910;2023-07-20T06:03:00;31.00;42.70
21171;DHT22;10743;52.160;20.910;2023-07-20T06:05:27;31.00;42.50
21171;DHT22;10743;52.160;20.910;2023-07-20T06:07:56;31.00;42.40
21171;DHT22;10743;52.160;20.910;2023-07-20T06:10:24;31.00;42.40
21171;DHT22;10743;52.160;20.910;2023-07-20T06:12:51;31.00;42.40
21171;DHT22;10743;52.160;20.910;2023-07-20T06:15:26;31.00;42.30
21171;DHT22;10743;52.160;20.910;2023-07-20T06:17:55;31.00;42.40
21171;DHT22;10743;52.160;20.910;2023-07-20T06:20:25;31.00;42.30
21171;DHT22;10743;52.160;20.910;2023-07-20T06:22:52;31.10;42.20
21171;DHT22;10743;52.160;20.910;2023-07-20T06:25:19;31.00;42.20
21171;DHT22;10743;52.160;20.910;2023-07-20T06:27:49;31.00;42.10
21171;DHT22;10743;52.160;20.910;2023-07-20T06:30:20;31.00;42.20
21171;DHT22;10743;52.160;20.910;2023-07-20T06:32:48;31.00;42.30
21171;DHT22;10743;52.160;20.910;2023-07-20T06:35:15;31.00;42.30
21171;DHT22;10743;52.160;20.910;2023-07-20T06:37:44;31.10;42.40
21171;DHT22;10743;52.160;20.910;2023-07-20T06:40:11;31.10;42.40
21171;DHT22;10743;52.160;20.910;2023-07-20T06:42:41;31.10;42.50
21171;DHT22;10743;52.160;20.910;2023-07-20T06:45:11;31.00;42.60
21171;DHT22;10743;52.160;20.910;2023-07-20T06:47:39;31.10;42.80
21171;DHT22;10743;52.160;20.910;2023-07-20T06:50:07;31.10;42.50
21171;DHT22;10743;52.160;20.910;2023-07-20T06:52:34;31.10;42.70
21171;DHT22;10743;52.160;20.910;2023-07-20T06:55:01;31.10;43.00
21171;DHT22;10743;52.160;20.910;2023-07-20T06:57:32;31.10;43.00
21171;DHT22;10743;52.160;20.910;2023-07-20T06:59:59;31.20;43.30
21171;DHT22;10743;52.160;20.910;2023-07-20T07:02:26;31.20;43.00
21171;DHT22;10743;52.160;20.910;2023-07-20T07:04:53;31.20;42.60
21171;DHT22;10743;52.160;20.910;2023-07-20T07:07:25;31.30;42.70
21171;DHT22;10743;52.160;20.910;2023-07-20T07:09:53;31.30;42.30
21171;DHT22;10743;52.160;20.910;2023-07-20T07:12:21;31.30;42.20
21171;DHT22;10743;52.160;20.910;2023-07-20T07:14:48;31.40;42.80
21171;DHT22;10743;52.160;20.910;2023-07-20T07:17:15;31.40;42.70
21171;DHT22;10743;52.160;20.910;2023-07-20T07:19:45;31.40;42.70
21171;DHT22;10743;52.160;20.910;2023-07-20T07:22:15;31.40;42.80
21171;DHT22;10743;52.160;20.910;2023-07-20T07:24:42;31.50;42.70
21171;DHT22;10743;52.160;20.910;2023-07-20T07:27:09;31.50;42.50
21171;DHT22;10743;52.160;20.910;2023-07-20T07:29:36;31.50;42.40
21171;DHT22;10743;52.160;20.910;2023-07-20T07:32:04;31.50;42.50
21171;DHT22;10743;52.160;20.910;2023-07-20T07:34:31;31.50;42.30
21171;DHT22;10743;52.160;20.910;2023-07-20T07:37:01;31.60;42.30
21171;DHT22;10743;52.160;20.910;2023-07-20T07:39:28;31.60;42.50
21171;DHT22;10743;52.160;20.910;2023-07-20T07:42:01;31.60;42.40
21171;DHT22;10743;52.160;20.910;2023-07-20T07:44:28;31.60;42.40
21171;DHT22;10743;52.160;20.910;2023-07-20T07:46:55;31.70;42.50
21171;DHT22;10743;52.160;20.910;2023-07-20T07:49:22;31.70;42.50
21171;DHT22;10743;52.160;20.910;2023-07-20T07:51:50;31.70;42.20
21171;DHT22;10743;52.160;20.910;2023-07-20T07:54:17;31.70;42.20
21171;DHT22;10743;52.160;20.910;2023-07-20T07:56:44;31.70;42.60
21171;DHT22;10743;52.160;20.910;2023-07-20T07:59:11;31.70;42.10
21171;DHT22;10743;52.160;20.910;2023-07-20T08:01:38;31.70;42.20
21171;DHT22;10743;52.160;20.910;2023-07-20T08:04:06;31.70;42.30
21171;DHT22;10743;52.160;20.910;2023-07-20T08:06:33;31.70;42.30
21171;DHT22;10743;52.160;20.910;2023-07-20T08:09:00;31.70;42.10
21171;DHT22;10743;52.160;20.910;2023-07-20T08:11:29;31.70;42.20
21171;DHT22;10743;52.160;20.910;2023-07-20T08:13:57;31.70;42.00
21171;DHT22;10743;52.160;20.910;2023-07-20T08:16:24;31.70;42.20
21171;DHT22;10743;52.160;20.910;2023-07-20T08:18:52;31.80;41.90
21171;DHT22;10743;52.160;20.910;2023-07-20T08:21:19;31.80;42.00
21171;DHT22;10743;52.160;20.910;2023-07-20T08:23:46;31.80;42.00
21171;DHT22;10743;52.160;20.910;2023-07-20T08:26:13;31.80;41.80
21171;DHT22;10743;52.160;20.910;2023-07-20T08:31:11;31.80;42.10
21171;DHT22;10743;52.160;20.910;2023-07-20T08:33:38;31.80;41.80
21171;DHT22;10743;52.160;20.910;2023-07-20T08:36:05;31.80;41.70
21171;DHT22;10743;52.160;20.910;2023-07-20T08:38:33;31.90;42.10
21171;DHT22;10743;52.160;20.910;2023-07-20T08:41:00;31.90;42.00
21171;DHT22;10743;52.160;20.910;2023-07-20T08:43:28;31.90;42.00
21171;DHT22;10743;52.160;20.910;2023-07-20T08:45:57;31.90;41.90
21171;DHT22;10743;52.160;20.910;2023-07-20T08:48:27;31.90;41.80
21171;DHT22;10743;52.160;20.910;2023-07-20T08:50:55;31.90;41.90
21171;DHT22;10743;52.160;20.910;2023-07-20T08:53:23;31.90;41.80
21171;DHT22;10743;52.160;20.910;2023-07-20T08:55:51;31.90;41.80
21171;DHT22;10743;52.160;20.910;2023-07-20T08:58:22;31.90;41.90
21171;DHT22;10743;52.160;20.910;2023-07-20T09:00:50;31.90;41.90
21171;DHT22;10743;52.160;20.910;2023-07-20T09:03:19;31.90;42.10
21171;DHT22;10743;52.160;20.910;2023-07-20T09:05:46;31.90;42.00
21171;DHT22;10743;52.160;20.910;2023-07-20T09:08:13;31.90;41.90
21171;DHT22;10743;52.160;20.910;2023-07-20T09:10:40;31.90;42.00
21171;DHT22;10743;52.160;20.910;2023-07-20T09:13:07;31.90;42.00
21171;DHT22;10743;52.160;20.910;2023-07-20T09:15:36;31.90;42.00
21171;DHT22;10743;52.160;20.910;2023-07-20T09:18:03;31.90;41.90
21171;DHT22;10743;52.160;20.910;2023-07-20T09:20:32;31.90;42.00
21171;DHT22;10743;52.160;20.910;2023-07-20T09:23:04;31.90;42.00
21171;DHT22;10743;52.160;20.910;2023-07-20T09:25:33;31.90;42.00
21171;DHT22;10743;52.160;20.910;2023-07-20T09:28:02;31.90;42.00
21171;DHT22;10743;52.160;20.910;2023-07-20T09:30:31;31.90;42.10
21171;DHT22;10743;52.160;20.910;2023-07-20T09:32:59;31.90;42.10
21171;DHT22;10743;52.160;20.910;2023-07-20T09:35:27;31.90;42.10
21171;DHT22;10743;52.160;20.910;2023-07-20T09:38:08;32.00;42.20
21171;DHT22;10743;52.160;20.910;2023-07-20T09:40:38;32.00;42.30
21171;DHT22;10743;52.160;20.910;2023-07-20T09:43:10;32.00;42.60
21171;DHT22;10743;52.160;20.910;2023-07-20T09:45:41;32.00;42.10
21171;DHT22;10743;52.160;20.910;2023-07-20T09:48:12;32.10;41.70
21171;DHT22;10743;52.160;20.910;2023-07-20T09:50:51;32.10;41.20
21171;DHT22;10743;52.160;20.910;2023-07-20T09:53:19;32.10;40.80
21171;DHT22;10743;52.160;20.910;2023-07-20T09:55:47;32.10;41.00
21171;DHT22;10743;52.160;20.910;2023-07-20T09:58:15;32.20;40.40
21171;DHT22;10743;52.160;20.910;2023-07-20T10:00:44;32.20;40.50
21171;DHT22;10743;52.160;20.910;2023-07-20T10:03:20;32.20;40.80
21171;DHT22;10743;52.160;20.910;2023-07-20T10:06:02;32.20;40.30
21171;DHT22;10743;52.160;20.910;2023-07-20T10:08:37;32.10;40.50
21171;DHT22;10743;52.160;20.910;2023-07-20T10:11:10;32.10;40.70
21171;DHT22;10743;52.160;20.910;2023-07-20T10:13:41;32.10;41.20
21171;DHT22;10743;52.160;20.910;2023-07-20T10:16:20;32.20;40.40
21171;DHT22;10743;52.160;20.910;2023-07-20T10:19:05;32.20;40.00
21171;DHT22;10743;52.160;20.910;2023-07-20T10:21:40;32.20;39.90
21171;DHT22;10743;52.160;20.910;2023-07-20T10:24:46;28.70;37.10
21171;DHT22;10743;52.160;20.910;2023-07-20T10:27:14;32.10;40.40
21171;DHT22;10743;52.160;20.910;2023-07-20T10:29:42;32.10;40.50
21171;DHT22;10743;52.160;20.910;2023-07-20T10:32:09;32.00;40.80
21171;DHT22;10743;52.160;20.910;2023-07-20T10:34:37;32.00;41.20
21171;DHT22;10743;52.160;20.910;2023-07-20T10:37:04;32.10;41.40
21171;DHT22;10743;52.160;20.910;2023-07-20T10:39:32;32.00;41.10
21171;DHT22;10743;52.160;20.910;2023-07-20T10:42:01;32.10;41.50
21171;DHT22;10743;52.160;20.910;2023-07-20T10:44:37;32.10;42.10
21171;DHT22;10743;52.160;20.910;2023-07-20T10:47:13;32.20;41.90
21171;DHT22;10743;52.160;20.910;2023-07-20T10:49:58;32.20;41.50
21171;DHT22;10743;52.160;20.910;2023-07-20T10:52:40;32.20;40.90
21171;DHT22;10743;52.160;20.910;2023-07-20T10:55:14;32.30;40.70
21171;DHT22;10743;52.160;20.910;2023-07-20T10:57:43;32.30;40.50
21171;DHT22;10743;52.160;20.910;2023-07-20T11:00:14;32.40;40.90
21171;DHT22;10743;52.160;20.910;2023-07-20T11:02:46;32.50;41.00
21171;DHT22;10743;52.160;20.910;2023-07-20T11:05:37;32.50;40.20
21171;DHT22;10743;52.160;20.910;2023-07-20T11:08:38;32.60;39.90
21171;DHT22;10743;52.160;20.910;2023-07-20T11:11:25;32.60;39.40
21171;DHT22;10743;52.160;20.910;2023-07-20T11:16:46;32.70;39.40
21171;DHT22;10743;52.160;20.910;2023-07-20T11:19:20;32.60;39.80
21171;DHT22;10743;52.160;20.910;2023-07-20T11:21:57;32.70;40.30
21171;DHT22;10743;52.160;20.910;2023-07-20T11:24:27;32.70;40.40
21171;DHT22;10743;52.160;20.910;2023-07-20T11:26:54;32.70;39.60
21171;DHT22;10743;52.160;20.910;2023-07-20T11:29:23;32.80;39.10
21171;DHT22;10743;52.160;20.910;2023-07-20T11:31:58;32.90;39.20
21171;DHT22;10743;52.160;20.910;2023-07-20T11:34:30;32.90;39.50
21171;DHT22;10743;52.160;20.910;2023-07-20T11:36:59;32.90;39.90
21171;DHT22;10743;52.160;20.910;2023-07-20T11:39:29;33.00;39.40
21171;DHT22;10743;52.160;20.910;2023-07-20T11:41:57;33.10;39.30
21171;DHT22;10743;52.160;20.910;2023-07-20T11:44:26;33.10;39.20
21171;DHT22;10743;52.160;20.910;2023-07-20T11:47:08;33.20;39.20
21171;DHT22;10743;52.160;20.910;2023-07-20T11:49:42;33.30;38.30
21171;DHT22;10743;52.160;20.910;2023-07-20T11:52:11;33.30;38.90
21171;DHT22;10743;52.160;20.910;2023-07-20T11:54:41;33.40;38.00
21171;DHT22;10743;52.160;20.910;2023-07-20T11:57:19;33.40;38.60
21171;DHT22;10743;52.160;20.910;2023-07-20T11:59:55;33.50;38.60
21171;DHT22;10743;52.160;20.910;2023-07-20T12:02:31;33.50;38.50
21171;DHT22;10743;52.160;20.910;2023-07-20T12:04:58;33.50;38.10
21171;DHT22;10743;52.160;20.910;2023-07-20T12:07:34;33.60;38.40
21171;DHT22;10743;52.160;20.910;2023-07-20T12:10:08;34.40;39.00
21171;DHT22;10743;52.160;20.910;2023-07-20T12:12:43;33.60;38.20
21171;DHT22;10743;52.160;20.910;2023-07-20T12:15:25;33.70;38.30
21171;DHT22;10743;52.160;20.910;2023-07-20T12:18:01;33.70;37.80
21171;DHT22;10743;52.160;20.910;2023-07-20T12:20:37;33.80;37.50
21171;DHT22;10743;52.160;20.910;2023-07-20T12:23:12;33.90;37.50
21171;DHT22;10743;52.160;20.910;2023-07-20T12:25:44;33.80;38.00
21171;DHT22;10743;52.160;20.910;2023-07-20T12:28:18;33.90;37.80
21171;DHT22;10743;52.160;20.910;2023-07-20T12:30:46;33.80;37.50
21171;DHT22;10743;52.160;20.910;2023-07-20T12:33:22;33.90;37.00
21171;DHT22;10743;52.160;20.910;2023-07-20T12:35:50;34.00;37.20
21171;DHT22;10743;52.160;20.910;2023-07-20T12:38:17;33.90;37.50
21171;DHT22;10743;52.160;20.910;2023-07-20T12:40:45;34.00;37.30
21171;DHT22;10743;52.160;20.910;2023-07-20T12:43:12;34.00;37.70
21171;DHT22;10743;52.160;20.910;2023-07-20T12:45:39;34.00;37.50
21171;DHT22;10743;52.160;20.910;2023-07-20T12:48:07;34.00;37.50
21171;DHT22;10743;52.160;20.910;2023-07-20T12:50:34;34.00;37.40
21171;DHT22;10743;52.160;20.910;2023-07-20T12:53:01;34.00;37.20
21171;DHT22;10743;52.160;20.910;2023-07-20T12:55:30;34.00;37.30
21171;DHT22;10743;52.160;20.910;2023-07-20T12:57:58;34.00;37.50
21171;DHT22;10743;52.160;20.910;2023-07-20T13:00:25;34.00;37.50
21171;DHT22;10743;52.160;20.910;2023-07-20T13:02:52;34.00;37.50
21171;DHT22;10743;52.160;20.910;2023-07-20T13:05:35;34.00;37.60
21171;DHT22;10743;52.160;20.910;2023-07-20T13:08:06;34.00;38.00
21171;DHT22;10743;52.160;20.910;2023-07-20T13:10:36;34.00;38.10
21171;DHT22;10743;52.160;20.910;2023-07-20T13:13:05;34.00;38.70
21171;DHT22;10743;52.160;20.910;2023-07-20T13:15:42;34.00;39.00
21171;DHT22;10743;52.160;20.910;2023-07-20T13:18:10;34.00;38.60
21171;DHT22;10743;52.160;20.910;2023-07-20T13:20:37;34.00;39.00
21171;DHT22;10743;52.160;20.910;2023-07-20T13:23:05;34.00;38.90
21171;DHT22;10743;52.160;20.910;2023-07-20T13:25:32;34.00;38.70
21171;DHT22;10743;52.160;20.910;2023-07-20T13:27:59;34.00;38.50
21171;DHT22;10743;52.160;20.910;2023-07-20T13:30:26;34.00;39.30
21171;DHT22;10743;52.160;20.910;2023-07-20T13:32:54;34.00;39.00
21171;DHT22;10743;52.160;20.910;2023-07-20T13:35:21;34.10;38.50
21171;DHT22;10743;52.160;20.910;2023-07-20T13:37:48;34.10;38.20
21171;DHT22;10743;52.160;20.910;2023-07-20T13:40:16;34.10;38.10
21171;DHT22;10743;52.160;20.910;2023-07-20T13:42:45;34.20;38.20
21171;DHT22;10743;52.160;20.910;2023-07-20T13:45:12;34.20;38.20
21171;DHT22;10743;52.160;20.910;2023-07-20T13:47:41;34.20;37.90
21171;DHT22;10743;52.160;20.910;2023-07-20T13:50:12;34.30;37.40
21171;DHT22;10743;52.160;20.910;2023-07-20T13:52:52;34.30;37.30
21171;DHT22;10743;52.160;20.910;2023-07-20T13:55:39;34.30;37.50
21171;DHT22;10743;52.160;20.910;2023-07-20T13:58:09;34.30;37.40
21171;DHT22;10743;52.160;20.910;2023-07-20T14:00:40;34.30;36.90
21171;DHT22;10743;52.160;20.910;2023-07-20T14:03:07;34.30;36.40
21171;DHT22;10743;52.160;20.910;2023-07-20T14:05:37;34.30;36.80
21171;DHT22;10743;52.160;20.910;2023-07-20T14:08:07;34.20;37.10
21171;DHT22;10743;52.160;20.910;2023-07-20T14:10:36;34.20;37.60
21171;DHT22;10743;52.160;20.910;2023-07-20T14:13:23;34.20;37.70
21171;DHT22;10743;52.160;20.910;2023-07-20T14:16:07;34.20;37.80
21171;DHT22;10743;52.160;20.910;2023-07-20T14:18:35;34.20;36.50
21171;DHT22;10743;52.160;20.910;2023-07-20T14:21:02;34.20;36.40
21171;DHT22;10743;52.160;20.910;2023-07-20T14:23:35;34.10;36.50
21171;DHT22;10743;52.160;20.910;2023-07-20T14:26:03;34.20;36.60
21171;DHT22;10743;52.160;20.910;2023-07-20T14:28:48;34.10;36.70
21171;DHT22;10743;52.160;20.910;2023-07-20T14:31:15;34.10;37.00
21171;DHT22;10743;52.160;20.910;2023-07-20T14:33:42;34.10;36.80
21171;DHT22;10743;52.160;20.910;2023-07-20T14:36:09;34.10;37.10
21171;DHT22;10743;52.160;20.910;2023-07-20T14:38:38;34.10;37.20
21171;DHT22;10743;52.160;20.910;2023-07-20T14:41:04;34.10;37.10
21171;DHT22;10743;52.160;20.910;2023-07-20T14:43:33;34.10;37.40
21171;DHT22;10743;52.160;20.910;2023-07-20T14:46:00;34.10;37.50
21171;DHT22;10743;52.160;20.910;2023-07-20T14:48:27;34.00;37.60
21171;DHT22;10743;52.160;20.910;2023-07-20T14:50:55;34.00;37.80
21171;DHT22;10743;52.160;20.910;2023-07-20T14:53:31;34.00;37.30
21171;DHT22;10743;52.160;20.910;2023-07-20T14:56:01;34.00;37.30
21171;DHT22;10743;52.160;20.910;2023-07-20T14:58:31;34.00;36.70
21171;DHT22;10743;52.160;20.910;2023-07-20T15:01:01;34.00;35.80
21171;DHT22;10743;52.160;20.910;2023-07-20T15:03:29;34.00;35.90
21171;DHT22;10743;52.160;20.910;2023-07-20T15:05:58;34.00;36.10
21171;DHT22;10743;52.160;20.910;2023-07-20T15:08:25;34.00;35.90
21171;DHT22;10743;52.160;20.910;2023-07-20T15:10:52;34.00;35.70
21171;DHT22;10743;52.160;20.910;2023-07-20T15:13:19;34.00;35.50
21171;DHT22;10743;52.160;20.910;2023-07-20T15:15:46;34.00;35.20
21171;DHT22;10743;52.160;20.910;2023-07-20T15:18:13;34.00;35.20
21171;DHT22;10743;52.160;20.910;2023-07-20T15:20:40;34.00;35.30
21171;DHT22;10743;52.160;20.910;2023-07-20T15:23:07;34.00;35.20
21171;DHT22;10743;52.160;20.910;2023-07-20T15:25:34;34.00;35.10
21171;DHT22;10743;52.160;20.910;2023-07-20T15:28:02;34.00;35.10
21171;DHT22;10743;52.160;20.910;2023-07-20T15:30:29;34.10;35.30
21171;DHT22;10743;52.160;20.910;2023-07-20T15:32:59;34.10;35.20
21171;DHT22;10743;52.160;20.910;2023-07-20T15:35:28;34.10;35.10
21171;DHT22;10743;52.160;20.910;2023-07-20T15:37:55;34.10;35.00
21171;DHT22;10743;52.160;20.910;2023-07-20T15:40:23;34.10;35.20
21171;DHT22;10743;52.160;20.910;2023-07-20T15:42:50;34.10;35.10
21171;DHT22;10743;52.160;20.910;2023-07-20T15:45:21;34.10;34.90